Time;durP1;ratioP1;P1;durP2;ratioP2;P2;SDS_P1;SDS_P2;PMS_P1;PMS_P2;Temp;Humidity;BMP_temperature;BMP_pressure;BME280_temperature;BME280_humidity;BME280_pressure;Samples;Min_cycle;Max_cycle;Signal;HPM_P1;HPM_P2
2023/12/17 00:01:05;;;;;;;68.80;25.02;;;;;;;8.03;100.00;103669.25;6250245;22;20015;-83
2023/12/17 00:03:30;;;;;;;66.87;25.17;;;;;;;8.04;100.00;103671.81;6251323;22;20042;-83
2023/12/17 00:05:56;;;;;;;73.15;26.52;;;;;;;8.04;100.00;103671.81;6250616;22;20008;-83
2023/12/17 00:08:22;;;;;;;75.90;26.70;;;;;;;8.04;100.00;103668.28;6251157;22;20007;-83
2023/12/17 00:10:48;;;;;;;71.70;27.80;;;;;;;8.06;100.00;103671.69;6250331;22;20014;-83
2023/12/17 00:13:14;;;;;;;72.95;26.02;;;;;;;8.05;100.00;103657.31;6225717;22;20007;-83
2023/12/17 00:15:40;;;;;;;74.00;28.27;;;;;;;8.06;100.00;103661.75;6250558;22;20084;-83
2023/12/17 00:18:06;;;;;;;70.65;26.25;;;;;;;8.06;100.00;103653.66;6250435;22;20274;-83
2023/12/17 00:20:32;;;;;;;71.82;25.77;;;;;;;8.06;100.00;103655.47;6250152;22;20034;-82
2023/12/17 00:22:57;;;;;;;71.57;26.45;;;;;;;8.06;100.00;103660.88;6250487;22;20018;-83
2023/12/17 00:25:23;;;;;;;69.18;25.40;;;;;;;8.07;100.00;103652.66;6277389;22;20082;-83
2023/12/17 00:27:48;;;;;;;64.97;24.20;;;;;;;8.07;100.00;103651.78;6250504;22;20330;-83
2023/12/17 00:30:14;;;;;;;68.70;25.07;;;;;;;8.08;100.00;103653.50;6225149;22;20038;-82
2023/12/17 00:32:39;;;;;;;61.23;25.03;;;;;;;8.08;100.00;103658.91;6250437;22;20355;-82
2023/12/17 00:35:05;;;;;;;69.57;25.33;;;;;;;8.08;100.00;103650.81;6225684;22;20034;-82
2023/12/17 00:37:30;;;;;;;67.60;24.52;;;;;;;8.06;100.00;103637.41;6249238;22;20023;-83
2023/12/17 00:39:55;;;;;;;69.87;24.90;;;;;;;8.07;100.00;103639.16;6251175;22;20034;-82
2023/12/17 00:42:21;;;;;;;70.20;24.73;;;;;;;8.07;100.00;103633.75;6225004;22;20007;-83
2023/12/17 00:44:46;;;;;;;72.37;26.20;;;;;;;8.08;100.00;103631.88;6224353;22;20430;-83
2023/12/17 00:47:12;;;;;;;69.15;25.50;;;;;;;8.08;100.00;103626.47;6277037;22;20015;-82
2023/12/17 00:49:37;;;;;;;70.90;26.07;;;;;;;8.06;100.00;103629.31;6249989;22;20007;-83
2023/12/17 00:52:03;;;;;;;64.53;23.53;;;;;;;8.06;100.00;103634.72;6250104;22;20434;-83
2023/12/17 00:54:28;;;;;;;76.20;26.98;;;;;;;8.06;100.00;103633.84;6250753;22;20319;-83
2023/12/17 00:56:54;;;;;;;62.50;22.40;;;;;;;8.06;100.00;103639.25;6277273;22;20014;-83
2023/12/17 00:59:19;;;;;;;71.03;25.20;;;;;;;8.05;100.00;103633.00;6224886;22;20455;-82
2023/12/17 01:01:44;;;;;;;70.37;23.50;;;;;;;8.06;100.00;103625.72;6250090;22;20019;-83
2023/12/17 01:04:10;;;;;;;63.90;21.87;;;;;;;8.07;100.00;103632.84;6224807;22;20016;-83
2023/12/17 01:06:35;;;;;;;63.17;23.75;;;;;;;8.08;100.00;103621.06;6251006;22;20072;-82
2023/12/17 01:09:01;;;;;;;69.33;24.27;;;;;;;8.07;100.00;103613.94;6250175;22;20014;-83
2023/12/17 01:11:26;;;;;;;70.97;24.37;;;;;;;8.05;100.00;103600.53;6224769;22;20008;-83
2023/12/17 01:13:51;;;;;;;65.17;23.30;;;;;;;8.06;100.00;103598.69;6199837;22;20058;-83
2023/12/17 01:16:17;;;;;;;75.20;24.17;;;;;;;8.07;100.00;103600.41;6277217;22;20008;-83
2023/12/17 01:18:42;;;;;;;66.63;23.73;;;;;;;8.05;100.00;103613.22;6250432;22;20083;-83
2023/12/17 01:21:08;;;;;;;62.83;22.52;;;;;;;8.06;100.00;103613.09;6250161;22;20238;-83
2023/12/17 01:23:34;;;;;;;65.83;24.43;;;;;;;8.04;100.00;103609.63;6250039;22;20022;-83
2023/12/17 01:26:00;;;;;;;68.28;24.38;;;;;;;8.04;100.00;103606.09;6250011;22;20073;-83
2023/12/17 01:28:25;;;;;;;74.27;24.83;;;;;;;8.05;100.00;103602.41;6226828;22;20027;-83
2023/12/17 01:30:51;;;;;;;69.07;23.63;;;;;;;8.05;100.00;103599.69;6201260;22;20441;-83
2023/12/17 01:33:16;;;;;;;68.60;23.93;;;;;;;8.05;100.00;103600.53;6226771;22;20420;-84
2023/12/17 01:35:41;;;;;;;69.10;23.50;;;;;;;8.04;100.00;103616.91;6226326;22;20073;-83
2023/12/17 01:38:07;;;;;;;63.42;23.00;;;;;;;8.04;100.00;103620.44;6278564;22;20090;-83
2023/12/17 01:40:32;;;;;;;65.85;22.27;;;;;;;8.04;100.00;103619.59;6252278;22;20008;-83
2023/12/17 01:42:58;;;;;;;63.37;21.13;;;;;;;8.02;100.00;103624.28;6251814;22;20035;-83
2023/12/17 01:45:23;;;;;;;62.67;21.43;;;;;;;8.04;100.00;103625.00;6226358;22;20022;-83
2023/12/17 01:47:49;;;;;;;60.43;20.83;;;;;;;8.05;100.00;103632.16;6227096;22;20003;-82
2023/12/17 01:50:15;;;;;;;60.75;22.05;;;;;;;8.07;100.00;103633.75;6226768;22;20016;-82
2023/12/17 01:52:41;;;;;;;57.28;20.48;;;;;;;8.05;100.00;103632.16;6251351;22;20067;-83
2023/12/17 01:55:08;;;;;;;62.23;21.83;;;;;;;8.03;100.00;103621.47;6278579;22;20422;-83
2023/12/17 01:57:33;;;;;;;54.95;20.95;;;;;;;8.04;100.00;103627.72;6252027;22;20062;-82
2023/12/17 02:00:03;;;;;;;59.90;21.80;;;;;;;8.04;100.00;103628.56;6251603;22;20430;-82
2023/12/17 02:02:30;;;;;;;59.88;20.70;;;;;;;8.07;100.00;103638.25;6278926;22;20012;-82
2023/12/17 02:04:56;;;;;;;53.92;19.98;;;;;;;8.03;100.00;103634.09;6201735;22;20066;-83
2023/12/17 02:07:22;;;;;;;55.33;20.65;;;;;;;8.04;100.00;103638.53;6252123;22;20011;-83
2023/12/17 02:09:47;;;;;;;59.07;20.77;;;;;;;8.04;100.00;103639.38;6251785;22;20008;-83
2023/12/17 02:12:32;;;;;;;56.30;19.80;;;;;;;8.04;100.00;103641.22;6251349;22;20054;-83
2023/12/17 02:14:57;;;;;;;53.13;19.40;;;;;;;8.03;100.00;103636.81;6226512;22;20012;-83
2023/12/17 02:17:28;;;;;;;58.50;19.93;;;;;;;8.04;100.00;103643.94;6251561;22;20090;-83
2023/12/17 02:19:54;;;;;;;56.83;20.02;;;;;;;8.04;100.00;103633.97;6226565;22;20015;-83
2023/12/17 02:22:21;;;;;;;55.03;19.80;;;;;;;8.03;100.00;103637.69;6276948;22;20422;-83
2023/12/17 02:24:47;;;;;;;55.20;20.38;;;;;;;8.04;100.00;103627.72;6250886;22;20012;-83
2023/12/17 02:27:19;;;;;;;58.95;20.80;;;;;;;8.04;100.00;103633.97;6226968;22;20107;-83
2023/12/17 02:29:45;;;;;;;56.88;20.30;;;;;;;8.04;100.00;103625.84;6278669;22;20476;-83
2023/12/17 02:32:10;;;;;;;59.25;20.08;;;;;;;8.06;100.00;103620.31;6251444;22;20016;-83
2023/12/17 02:34:35;;;;;;;54.87;19.60;;;;;;;8.04;100.00;103617.75;6252327;22;20015;-83
2023/12/17 02:37:01;;;;;;;60.53;20.40;;;;;;;8.04;100.00;103622.31;6225816;22;20026;-83
2023/12/17 02:39:28;;;;;;;61.20;20.63;;;;;;;8.04;100.00;103623.16;6251075;22;20008;-83
2023/12/17 02:41:53;;;;;;;56.78;20.30;;;;;;;8.03;100.00;103626.88;6226398;22;20011;-83
2023/12/17 02:44:19;;;;;;;55.87;20.27;;;;;;;8.04;100.00;103625.00;6251065;22;20449;-83
2023/12/17 02:46:44;;;;;;;59.75;20.95;;;;;;;8.04;100.00;103630.41;6250874;22;20034;-83
2023/12/17 02:49:11;;;;;;;60.72;19.42;;;;;;;8.04;100.00;103627.72;6278486;22;20004;-82
2023/12/17 02:51:36;;;;;;;51.53;18.80;;;;;;;8.03;100.00;103629.56;6225882;22;20016;-83
2023/12/17 02:54:02;;;;;;;52.17;18.60;;;;;;;8.02;100.00;103616.19;6225824;22;20016;-83
2023/12/17 02:56:27;;;;;;;56.17;20.03;;;;;;;8.02;100.00;103618.88;6226632;22;20307;-83
2023/12/17 02:58:52;;;;;;;50.97;17.73;;;;;;;8.01;100.00;103614.47;6251332;22;20104;-83
2023/12/17 03:01:18;;;;;;;48.10;17.67;;;;;;;8.01;100.00;103618.00;6225882;22;20008;-83
2023/12/17 03:03:43;;;;;;;47.87;17.67;;;;;;;7.99;100.00;103617.28;6250861;22;20008;-83
2023/12/17 03:06:08;;;;;;;49.23;18.17;;;;;;;8.02;100.00;103618.88;6225804;22;20106;-83
2023/12/17 03:08:34;;;;;;;47.35;17.42;;;;;;;8.00;100.00;103612.72;6225470;22;20003;-82
2023/12/17 03:10:59;;;;;;;57.75;18.05;;;;;;;8.00;100.00;103618.13;6225399;22;20069;-83
2023/12/17 03:13:25;;;;;;;45.63;15.90;;;;;;;8.00;100.00;103610.03;6250656;22;20042;-83
2023/12/17 03:15:50;;;;;;;43.10;15.20;;;;;;;8.00;100.00;103604.63;6226794;22;20066;-83
2023/12/17 03:18:18;;;;;;;45.03;15.83;;;;;;;7.97;100.00;103605.75;6251115;22;20405;-83
2023/12/17 03:20:43;;;;;;;43.88;16.00;;;;;;;7.99;100.00;103613.75;6278086;22;20042;-83
2023/12/17 03:23:09;;;;;;;45.63;15.73;;;;;;;7.98;100.00;103612.88;6225219;22;20016;-83
2023/12/17 03:25:34;;;;;;;39.35;13.20;;;;;;;7.98;100.00;103612.03;6250859;22;20023;-83
2023/12/17 03:28:00;;;;;;;42.70;14.80;;;;;;;7.96;100.00;103603.16;6251039;22;20307;-83
2023/12/17 03:30:25;;;;;;;40.80;16.00;;;;;;;7.96;100.00;103600.47;6250714;22;20011;-83
2023/12/17 03:32:50;;;;;;;31.53;12.13;;;;;;;7.99;100.00;103597.53;6225522;22;20043;-83
2023/12/17 03:35:16;;;;;;;39.50;13.97;;;;;;;7.95;100.00;103590.66;6277977;22;20081;-83
2023/12/17 03:37:41;;;;;;;38.00;14.43;;;;;;;7.97;100.00;103592.25;6278212;22;20070;-83
2023/12/17 03:40:07;;;;;;;36.58;14.02;;;;;;;7.95;100.00;103596.06;6250953;22;20003;-83
2023/12/17 03:42:33;;;;;;;38.80;13.23;;;;;;;7.94;100.00;103606.00;6225597;22;20008;-83
2023/12/17 03:44:58;;;;;;;32.60;13.65;;;;;;;7.93;100.00;103596.19;6277971;22;20053;-93
2023/12/17 03:47:26;;;;;;;32.07;14.07;;;;;;;7.93;100.00;103585.38;6226004;22;20034;-93
2023/12/17 03:50:11;;;;;;;33.25;13.13;;;;;;;7.92;100.00;103586.34;6225938;22;20004;-93
2023/12/17 03:52:45;;;;;;;30.80;13.68;;;;;;;7.86;100.00;103576.91;6251554;22;20054;-93
2023/12/17 03:55:14;;;;;;;34.03;12.18;;;;;;;7.86;100.00;103576.06;6278444;22;20011;-93
2023/12/17 03:57:43;;;;;;;33.55;13.30;;;;;;;7.87;100.00;103569.69;6278403;22;20003;-93
2023/12/17 04:00:25;;;;;;;31.45;12.23;;;;;;;7.88;100.00;103576.78;6277016;22;20014;-93
2023/12/17 04:02:51;;;;;;;33.30;12.18;;;;;;;7.87;100.00;103578.66;6227992;22;20008;-94
2023/12/17 04:05:22;;;;;;;35.13;12.90;;;;;;;7.87;100.00;103559.72;6251034;22;20007;-94
2023/12/17 04:08:02;;;;;;;;;;;;;;;;;;;;;
2023/12/17 04:10:49;;;;;;;33.33;12.45;;;;;;;7.84;100.00;103562.69;6278663;22;20375;-94
2023/12/17 04:13:18;;;;;;;31.43;12.13;;;;;;;7.83;100.00;103560.97;6277442;22;20045;-93
2023/12/17 04:15:44;;;;;;;34.10;12.57;;;;;;;7.79;100.00;103555.94;6251140;22;20054;-93
2023/12/17 04:18:13;;;;;;;33.75;11.73;;;;;;;7.84;100.00;103562.69;6251240;22;20345;-93
2023/12/17 04:20:40;;;;;;;29.10;11.55;;;;;;;7.79;100.00;103558.66;6226251;22;20007;-93
2023/12/17 04:23:07;;;;;;;33.42;11.88;;;;;;;7.80;100.00;103554.97;6251115;22;20069;-93
2023/12/17 04:29:00;;;;;;;34.40;13.07;;;;;;;7.79;100.00;103556.81;6278149;22;20122;-93
2023/12/17 04:31:35;;;;;;;29.70;11.93;;;;;;;7.78;100.00;103560.50;6227360;22;20039;-93
2023/12/17 04:34:08;;;;;;;36.08;12.50;;;;;;;7.74;100.00;103545.53;6250790;22;20012;-93
2023/12/17 04:36:41;;;;;;;33.35;12.18;;;;;;;7.69;100.00;103535.13;6226077;22;20030;-93
2023/12/17 04:39:22;;;;;;;36.65;12.48;;;;;;;7.69;100.00;103535.13;6278586;22;20012;-93
2023/12/17 04:42:09;;;;;;;33.88;12.73;;;;;;;7.68;100.00;103552.31;6251533;22;20011;-93
2023/12/17 04:44:47;;;;;;;;;;;;;;;;;;;;;
2023/12/17 04:47:21;;;;;;;36.53;12.45;;;;;;;7.70;100.00;103563.00;6279173;22;20075;-94
2023/12/17 04:49:47;;;;;;;37.58;12.48;;;;;;;7.65;100.00;103549.88;6227153;22;20070;-93
2023/12/17 04:52:15;;;;;;;36.47;13.63;;;;;;;7.62;100.00;103557.38;6252082;22;20015;-94
2023/12/17 04:54:51;;;;;;;36.63;13.13;;;;;;;7.63;100.00;103554.56;6256070;22;20008;-93
2023/12/17 04:57:25;;;;;;;36.50;12.50;;;;;;;7.58;100.00;103543.28;6297645;22;19987;-92
2023/12/17 05:02:46;;;;;;;36.67;12.65;;;;;;;7.57;100.00;103555.06;6280427;22;20047;-93
2023/12/17 05:05:12;;;;;;;36.30;13.38;;;;;;;7.56;100.00;103550.66;6277886;22;20007;-93
2023/12/17 05:07:58;;;;;;;34.17;12.07;;;;;;;7.64;100.00;103550.00;6277802;22;20129;-93
2023/12/17 05:10:26;;;;;;;28.92;10.90;;;;;;;7.55;100.00;103538.97;6251116;22;20000;-93
2023/12/17 05:12:53;;;;;;;39.67;13.23;;;;;;;7.50;100.00;103533.13;6224719;22;20015;-93
2023/12/17 05:15:28;;;;;;;33.33;11.77;;;;;;;7.49;100.00;103536.81;6251306;22;20090;-93
2023/12/17 05:18:12;;;;;;;35.97;13.45;;;;;;;7.50;100.00;103537.66;6251342;22;20008;-93
2023/12/17 05:20:48;;;;;;;35.67;13.27;;;;;;;7.50;100.00;103537.66;6250441;22;20023;-93
2023/12/17 05:23:14;;;;;;;35.75;13.50;;;;;;;7.52;100.00;103549.19;6225739;22;20004;-93
2023/12/17 05:25:40;;;;;;;37.05;13.20;;;;;;;7.49;100.00;103536.81;6250549;22;20004;-93
2023/12/17 05:28:09;;;;;;;41.30;14.10;;;;;;;7.49;100.00;103535.94;6250380;22;20007;-93
2023/12/17 05:30:47;;;;;;;37.20;13.57;;;;;;;7.50;100.00;103533.13;6250305;22;20323;-93
2023/12/17 05:33:12;;;;;;;34.97;13.68;;;;;;;7.49;100.00;103538.66;6251050;22;20016;-93
2023/12/17 05:35:38;;;;;;;40.05;14.48;;;;;;;7.51;100.00;103542.06;6250287;22;20438;-93
2023/12/17 05:38:03;;;;;;;35.47;13.90;;;;;;;7.50;100.00;103538.53;6250332;22;20016;-93
2023/12/17 05:40:31;;;;;;;37.47;14.23;;;;;;;7.47;100.00;103543.31;6250532;22;20103;-93
2023/12/17 05:42:59;;;;;;;37.50;14.02;;;;;;;7.45;100.00;103540.75;6250940;22;20383;-93
2023/12/17 05:45:37;;;;;;;;;;;;;;;;;;;;;
2023/12/17 05:48:10;;;;;;;32.60;12.40;;;;;;;7.48;100.00;103550.44;6253697;22;20462;-93
2023/12/17 05:50:35;;;;;;;36.40;13.70;;;;;;;7.41;100.00;103539.31;6278380;22;20007;-93
2023/12/17 05:53:13;;;;;;;;;;;;;;;;;;;;;
2023/12/17 05:55:44;;;;;;;33.90;12.48;;;;;;;7.39;100.00;103541.25;6278703;22;20373;-93
2023/12/17 05:58:17;;;;;;;27.80;11.88;;;;;;;7.42;100.00;103532.03;6251364;22;20011;-92
2023/12/17 06:00:42;;;;;;;25.67;10.77;;;;;;;7.38;100.00;103532.31;6200951;22;20098;-92
2023/12/17 06:03:08;;;;;;;29.20;11.07;;;;;;;7.30;100.00;103528.53;6250127;22;20083;-91
2023/12/17 06:05:36;;;;;;;23.67;10.23;;;;;;;7.30;100.00;103520.44;6277008;22;20426;-92
2023/12/17 06:08:04;;;;;;;26.10;9.15;;;;;;;7.35;100.00;103532.56;6250928;22;20007;-92
2023/12/17 06:10:29;;;;;;;23.27;10.00;;;;;;;7.23;100.00;103530.88;6250647;22;20016;-92
2023/12/17 06:12:57;;;;;;;27.90;9.60;;;;;;;7.25;100.00;103531.63;6251394;22;20337;-93
2023/12/17 06:15:26;;;;;;;21.48;8.57;;;;;;;7.24;100.00;103529.91;6252273;22;20008;-93
2023/12/17 06:17:56;;;;;;;19.03;8.80;;;;;;;7.20;100.00;103531.13;6253080;22;20008;-93
2023/12/17 06:20:28;;;;;;;17.85;8.73;;;;;;;7.27;100.00;103547.69;6226834;22;20008;-88
2023/12/17 06:23:04;;;;;;;22.13;8.73;;;;;;;7.21;100.00;103532.84;6252854;22;20012;-88
2023/12/17 06:25:33;;;;;;;16.83;7.95;;;;;;;7.24;100.00;103534.44;6252364;22;20015;-90
2023/12/17 06:28:05;;;;;;;24.70;9.88;;;;;;;7.24;100.00;103540.69;6279253;22;20000;-91
2023/12/17 06:30:32;;;;;;;19.53;9.03;;;;;;;7.20;100.00;103537.41;6227455;22;20054;-90
2023/12/17 06:32:58;;;;;;;18.58;8.55;;;;;;;7.28;100.00;103549.38;6227159;22;20011;-90
2023/12/17 06:35:23;;;;;;;21.15;8.82;;;;;;;7.23;100.00;103530.03;6251868;22;20517;-91
2023/12/17 06:37:49;;;;;;;19.45;8.98;;;;;;;7.23;100.00;103530.88;6251391;22;20030;-90
2023/12/17 06:41:04;;;;;;;16.80;8.60;;;;;;;7.32;100.00;103546.31;6284161;22;20030;-96
2023/12/17 06:43:29;;;;;;;23.17;9.90;;;;;;;7.31;100.00;103543.75;6255839;22;20019;-96
2023/12/17 06:45:55;;;;;;;24.70;9.73;;;;;;;7.35;100.00;103545.19;6255015;22;20015;-96
2023/12/17 06:48:24;;;;;;;24.33;10.07;;;;;;;7.33;100.00;103530.97;6253064;22;20043;-94
2023/12/17 06:50:49;;;;;;;22.35;9.45;;;;;;;7.40;100.00;103540.28;6253473;22;20018;-93
2023/12/17 06:53:17;;;;;;;22.40;11.03;;;;;;;7.40;100.00;103539.41;6251695;22;20007;-87
2023/12/17 06:55:50;;;;;;;26.27;11.30;;;;;;;7.33;100.00;103530.97;6251266;22;20007;-88
2023/12/17 06:58:18;;;;;;;24.10;11.85;;;;;;;7.30;100.00;103523.97;6226362;22;20090;-89
2023/12/17 07:03:34;;;;;;;25.60;11.73;;;;;;;7.28;100.00;103528.66;6280607;22;20075;-89
2023/12/17 07:05:59;;;;;;;24.93;11.47;;;;;;;7.27;100.00;103531.50;6251431;22;20011;-89
2023/12/17 07:08:27;;;;;;;24.35;11.07;;;;;;;7.19;100.00;103522.19;6226610;22;20445;-89
2023/12/17 07:10:55;;;;;;;23.60;10.97;;;;;;;7.19;100.00;103530.28;6278802;22;20074;-90
2023/12/17 07:13:55;;;;;;;18.98;9.40;;;;;;;7.23;100.00;103543.53;6251464;22;20053;-89
2023/12/17 07:16:25;;;;;;;19.02;8.73;;;;;;;7.08;100.00;103524.91;6252068;22;20000;-88
2023/12/17 07:18:51;;;;;;;19.50;9.30;;;;;;;7.10;100.00;103549.06;6250912;22;20377;-88
2023/12/17 07:21:18;;;;;;;20.35;9.60;;;;;;;7.09;100.00;103533.88;6253084;22;20153;-87
2023/12/17 07:23:49;;;;;;;18.02;8.65;;;;;;;7.05;100.00;103530.56;6250756;22;20011;-87
2023/12/17 07:26:21;;;;;;;21.25;9.75;;;;;;;7.07;100.00;103533.13;6253602;22;20106;-87
2023/12/17 07:28:49;;;;;;;18.92;9.70;;;;;;;7.08;100.00;103530.28;6278030;22;20007;-87
2023/12/17 07:31:17;;;;;;;22.38;10.10;;;;;;;7.11;100.00;103529.19;6250905;22;20442;-87
2023/12/17 07:33:45;;;;;;;18.08;8.20;;;;;;;7.11;100.00;103521.09;6278513;22;20418;-87
2023/12/17 07:36:13;;;;;;;22.80;10.13;;;;;;;7.07;100.00;103535.81;6277828;22;20083;-87
2023/12/17 07:38:41;;;;;;;21.58;9.73;;;;;;;7.11;100.00;103535.44;6250727;22;20091;-87
2023/12/17 07:41:13;;;;;;;21.83;10.45;;;;;;;7.13;100.00;103535.31;6226005;22;20016;-87
2023/12/17 07:43:41;;;;;;;22.63;9.73;;;;;;;7.09;100.00;103548.22;6252682;22;20014;-87
2023/12/17 07:46:24;;;;;;;21.35;8.57;;;;;;;7.08;100.00;103538.41;6250765;22;20007;-87
2023/12/17 07:48:53;;;;;;;21.25;9.45;;;;;;;7.10;100.00;103539.16;6278291;22;20041;-88
2023/12/17 07:51:21;;;;;;;21.77;8.70;;;;;;;7.04;100.00;103545.03;6251194;22;20406;-88
2023/12/17 07:53:47;;;;;;;17.30;8.48;;;;;;;7.02;100.00;103547.00;6277216;22;20046;-88
2023/12/17 07:56:22;;;;;;;21.05;9.38;;;;;;;7.00;100.00;103541.72;6250601;22;20015;-88
2023/12/17 07:58:50;;;;;;;16.45;7.95;;;;;;;6.98;100.00;103548.22;6251044;22;20072;-87
2023/12/17 08:01:30;;;;;;;18.67;7.97;;;;;;;7.00;100.00;103547.13;6251462;22;20030;-88
2023/12/17 08:03:58;;;;;;;15.57;8.30;;;;;;;6.98;100.00;103557.22;6251599;22;20011;-87
2023/12/17 08:06:24;;;;;;;14.27;6.82;;;;;;;7.02;100.00;103563.22;6277318;22;20008;-87
2023/12/17 08:08:50;;;;;;;13.27;6.82;;;;;;;6.99;100.00;103566.16;6250424;22;20026;-88
2023/12/17 08:11:16;;;;;;;14.48;6.93;;;;;;;6.87;100.00;103554.50;6225480;22;20012;-87
2023/12/17 08:13:47;;;;;;;13.80;7.28;;;;;;;6.90;100.00;103548.88;6251154;22;20069;-87
2023/12/17 08:16:12;;;;;;;14.05;6.95;;;;;;;6.87;100.00;103554.50;6250514;22;20003;-87
2023/12/17 08:18:41;;;;;;;14.37;7.37;;;;;;;6.82;100.00;103563.00;6250502;22;20018;-87
2023/12/17 08:21:09;;;;;;;16.50;7.47;;;;;;;6.87;100.00;103564.47;6277964;22;20429;-87
2023/12/17 08:23:37;;;;;;;16.42;8.13;;;;;;;6.79;100.00;103543.47;6277733;22;20008;-87
2023/12/17 08:26:04;;;;;;;16.83;7.80;;;;;;;6.79;100.00;103546.16;6250124;22;20014;-87
2023/12/17 08:28:32;;;;;;;16.13;8.80;;;;;;;6.77;100.00;103553.53;6276715;22;20014;-88
2023/12/17 08:31:00;;;;;;;14.68;7.32;;;;;;;6.78;100.00;103545.31;6224367;22;20090;-88
2023/12/17 08:33:31;;;;;;;14.63;7.18;;;;;;;6.71;100.00;103554.03;6249936;22;20016;-87
2023/12/17 08:36:02;;;;;;;15.70;7.13;;;;;;;6.70;100.00;103560.41;6249879;22;20007;-88
2023/12/17 08:38:29;;;;;;;15.52;7.60;;;;;;;6.70;100.00;103563.97;6225601;22;20019;-87
2023/12/17 08:41:08;;;;;;;;;;;;;;;;;;;;;
2023/12/17 08:43:36;;;;;;;16.17;8.15;;;;;;;6.71;100.00;103565.69;6276893;22;20079;-87
2023/12/17 08:46:01;;;;;;;16.00;8.02;;;;;;;6.64;100.00;103559.06;6251242;22;20003;-88
2023/12/17 08:48:27;;;;;;;17.07;8.73;;;;;;;6.62;100.00;103567.28;6275887;22;20421;-87
2023/12/17 08:50:52;;;;;;;18.30;8.48;;;;;;;6.70;100.00;103579.28;6250482;22;20038;-88
2023/12/17 08:53:22;;;;;;;15.33;7.50;;;;;;;6.62;100.00;103558.34;6276956;22;20004;-87
2023/12/17 08:55:49;;;;;;;19.77;8.00;;;;;;;6.56;100.00;103566.94;6250463;22;20355;-88
2023/12/17 08:58:16;;;;;;;16.48;8.13;;;;;;;6.57;100.00;103566.81;6250063;22;20050;-87
2023/12/17 09:00:44;;;;;;;17.15;8.45;;;;;;;6.67;100.00;103566.91;6249923;22;20023;-88
2023/12/17 09:03:10;;;;;;;15.20;8.00;;;;;;;6.56;100.00;103567.78;6250400;22;20383;-87
2023/12/17 09:05:38;;;;;;;16.40;8.13;;;;;;;6.59;100.00;103562.13;6277168;22;20000;-87
2023/12/17 09:08:07;;;;;;;17.02;8.80;;;;;;;6.60;100.00;103568.38;6251245;22;20466;-87
2023/12/17 09:10:35;;;;;;;17.50;8.75;;;;;;;6.62;100.00;103561.03;6249842;22;20011;-89
2023/12/17 09:13:01;;;;;;;19.13;9.75;;;;;;;6.60;100.00;103565.69;6250498;22;20004;-87
2023/12/17 09:15:29;;;;;;;16.17;8.33;;;;;;;6.63;100.00;103577.09;6249879;22;20057;-87
2023/12/17 09:17:54;;;;;;;19.73;9.48;;;;;;;6.52;100.00;103566.28;6249959;22;20008;-87
2023/12/17 09:20:20;;;;;;;17.43;8.83;;;;;;;6.48;100.00;103562.13;6278066;22;20010;-88
2023/12/17 09:22:47;;;;;;;22.47;9.73;;;;;;;6.49;100.00;103569.22;6249498;22;20050;-88
2023/12/17 09:25:20;;;;;;;19.50;9.48;;;;;;;6.51;100.00;103580.78;6250101;22;20042;-87
2023/12/17 09:27:46;;;;;;;25.80;10.25;;;;;;;6.42;100.00;103568.88;6250335;22;20004;-88
2023/12/17 09:30:14;;;;;;;23.23;8.33;;;;;;;6.42;100.00;103570.69;6275655;22;20043;-87
2023/12/17 09:32:40;;;;;;;19.77;8.95;;;;;;;6.43;100.00;103572.44;6250442;22;20091;-87
2023/12/17 09:35:13;;;;;;;23.10;9.30;;;;;;;6.38;100.00;103571.91;6250136;22;20039;-87
2023/12/17 09:37:39;;;;;;;23.27;10.10;;;;;;;6.36;100.00;103572.03;6225535;22;20051;-87
2023/12/17 09:40:05;;;;;;;22.25;10.00;;;;;;;6.36;100.00;103577.44;6278577;22;20003;-88
2023/12/17 09:42:39;;;;;;;23.77;11.07;;;;;;;6.36;100.00;103573.88;6276909;22;20038;-88
2023/12/17 09:45:18;;;;;;;25.53;10.20;;;;;;;6.27;100.00;103570.06;6224922;22;20326;-88
2023/12/17 09:47:51;;;;;;;21.58;9.55;;;;;;;6.28;100.00;103561.84;6250818;22;20000;-87
2023/12/17 09:50:19;;;;;;;28.42;11.10;;;;;;;6.26;100.00;103574.63;6228107;22;20038;-87
2023/12/17 09:52:47;;;;;;;27.15;10.18;;;;;;;6.27;100.00;103575.47;6278765;22;20003;-88
2023/12/17 09:55:25;;;;;;;26.90;11.38;;;;;;;6.29;100.00;103579.75;6225850;22;20058;-88
2023/12/17 09:57:51;;;;;;;24.63;10.83;;;;;;;6.28;100.00;103586.13;6207022;22;20008;-89
2023/12/17 10:00:27;;;;;;;;;;;;;;;;;;;;;
2023/12/17 10:06:41;;;;;;;24.80;10.65;;;;;;;6.35;100.00;103569.47;6155744;23;20096;-87
2023/12/17 10:12:35;;;;;;;30.92;12.32;;;;;;;6.30;100.00;103577.91;6278632;22;20049;-86
2023/12/17 10:19:18;;;;;;;27.88;11.00;;;;;;;6.38;100.00;103590.78;6278517;22;20007;-86
2023/12/17 10:25:06;;;;;;;34.83;13.20;;;;;;;6.40;100.00;103591.53;6278432;22;20430;-86
2023/12/17 10:32:00;;;;;;;34.47;14.65;;;;;;;6.50;100.00;103592.53;6278500;22;20445;-86
2023/12/17 10:34:30;;;;;;;37.00;14.77;;;;;;;6.37;100.00;103568.38;6251782;22;20016;-86
2023/12/17 10:36:55;;;;;;;33.10;13.73;;;;;;;6.42;100.00;103568.00;6251539;22;20015;-86
2023/12/17 10:39:28;;;;;;;33.63;14.23;;;;;;;6.48;100.00;103573.78;6201386;22;20085;-86
2023/12/17 10:45:21;;;;;;;40.03;15.15;;;;;;;6.58;100.00;103555.00;6278441;22;20012;-86
2023/12/17 10:51:34;;;;;;;36.78;13.50;;;;;;;6.90;100.00;103540.78;6278283;22;20018;-86
2023/12/17 10:54:01;;;;;;;33.92;14.93;;;;;;;7.01;100.00;103542.59;6278626;22;20061;-86
2023/12/17 10:56:30;;;;;;;39.22;15.27;;;;;;;7.13;100.00;103535.31;6251439;22;20019;-86
2023/12/17 10:58:59;;;;;;;33.88;14.13;;;;;;;7.39;100.00;103538.56;6251425;22;20003;-86
2023/12/17 11:01:26;;;;;;;34.72;14.93;;;;;;;7.60;100.00;103533.19;6250999;22;20090;-86
2023/12/17 11:03:52;;;;;;;35.00;13.60;;;;;;;7.93;100.00;103523.19;6251094;22;20007;-86
2023/12/17 11:06:20;;;;;;;31.08;13.70;;;;;;;8.08;100.00;103521.84;6252324;22;20020;-86
2023/12/17 11:08:56;;;;;;;29.63;12.70;;;;;;;8.46;100.00;103519.53;6226100;22;20279;-86
2023/12/17 11:11:22;;;;;;;26.63;12.73;;;;;;;8.73;100.00;103507.22;6226087;22;20008;-85
2023/12/17 11:13:48;;;;;;;28.25;12.52;;;;;;;8.97;100.00;103506.84;6251842;22;20011;-86
2023/12/17 11:16:20;;;;;;;26.83;11.73;;;;;;;8.97;100.00;103503.28;6251578;22;20430;-86
2023/12/17 11:18:45;;;;;;;27.40;11.52;;;;;;;8.76;100.00;103507.78;6251047;22;20048;-87
2023/12/17 11:21:15;;;;;;;29.57;10.67;;;;;;;8.54;100.00;103494.50;6250709;22;20047;-87
2023/12/17 11:34:18;;;;;;;27.75;11.63;;;;;;;8.42;100.00;103475.59;6279859;22;20007;-87
2023/12/17 11:40:22;;;;;;;25.83;10.70;;;;;;;9.29;100.00;103487.63;6276820;22;20129;-87
2023/12/17 12:00:50;;;;;;;20.75;8.73;;;;;;;16.19;88.54;103439.97;6277181;22;20015;-90
2023/12/17 13:49:38;;;;;;;;;;;;;;;;;;;;;
2023/12/17 13:52:29;;;;;;;12.30;3.95;;;;;;;18.98;45.11;103281.16;6189730;23;20077;-90
2023/12/17 13:54:57;;;;;;;15.50;3.97;;;;;;;18.27;44.16;103272.41;6252932;22;20007;-88
2023/12/17 13:58:00;;;;;;;13.25;4.03;;;;;;;18.65;44.90;103284.75;6252050;22;20004;-88
2023/12/17 14:21:16;;;;;;;17.30;3.90;;;;;;;16.81;48.46;103262.31;6276933;22;20022;-87
2023/12/17 14:59:10;;;;;;;13.88;4.07;;;;;;;13.59;57.76;103240.31;6279593;22;20034;-87
2023/12/17 15:22:16;;;;;;;11.13;4.45;;;;;;;9.55;82.33;103235.00;6277526;22;20047;-87
2023/12/17 17:19:36;;;;;;;16.93;5.10;;;;;;;5.79;100.00;103229.72;6278305;22;20037;-86
2023/12/17 17:22:40;;;;;;;16.08;5.60;;;;;;;5.74;100.00;103231.06;6250847;22;20035;-87
2023/12/17 17:45:42;;;;;;;13.63;4.50;;;;;;;5.47;100.00;103218.84;6277135;22;20007;-86
2023/12/17 17:51:34;;;;;;;13.30;4.20;;;;;;;5.45;100.00;103218.13;6277158;22;20042;-87
2023/12/17 17:54:00;;;;;;;18.13;5.50;;;;;;;5.45;100.00;103218.13;6250349;22;20007;-86
2023/12/17 17:56:25;;;;;;;11.63;4.23;;;;;;;5.44;100.00;103211.03;6250911;22;20418;-86
2023/12/17 17:58:50;;;;;;;17.15;5.53;;;;;;;5.38;100.00;103211.53;6200417;22;20023;-86